CW6017 Weather Reports


Display with metric or nautical units.
time (UTC)temp
F
wind
direction
speed
MPH
gust
MPH
rain 1hr
in
rain 24hr
in
rain mn
in
humidity
%
barometer
mb
20200229134501 10 271 0.0 0.0 0.00 0.00 0.00 77 1024.6
20200229133141 9 271 0.0 0.0 0.00 0.00 0.00 80 1024.4
20200229131734 7 271 0.0 0.0 0.00 0.00 0.00 84 1024.4
20200229130245 4 271 0.0 0.0 0.00 0.00 0.00 84 1024.3
20200229124700 4 271 0.0 0.0 0.00 0.00 0.00 82 1024.4
20200229123149 4 271 0.0 0.0 0.00 0.00 0.00 82 1024.3
20200229121626 5 271 0.0 0.0 0.00 0.00 0.00 83 1024.5
20200229120145 5 271 0.0 0.0 0.00 0.00 0.00 83 1024.4
20200229114631 4 271 0.0 0.0 0.00 0.00 0.00 82 1024.5
20200229113214 5 271 0.0 0.0 0.00 0.00 0.00 82 1024.4
20200229111719 5 271 0.0 0.0 0.00 0.00 0.00 82 1024.5
20200229110132 5 271 0.0 0.0 0.00 0.00 0.00 81 1024.2
20200229104629 5 271 0.0 0.0 0.00 0.00 0.00 79 1024.2
20200229103129 6 271 0.0 0.0 0.00 0.00 0.00 80 1024.3
20200229101620 6 271 0.0 0.0 0.00 0.00 0.00 79 1024.1
20200229100102 6 271 0.0 0.0 0.00 0.00 0.00 78 1024.1
20200229094628 7 271 0.0 0.0 0.00 0.00 0.00 78 1024.1
20200229093123 7 271 0.0 0.0 0.00 0.00 0.00 77 1024.1
20200229090147 10 271 0.0 0.0 0.00 0.00 0.00 70 1024.3
20200229084547 11 271 0.0 0.0 0.00 0.00 0.00 72 1024.4
20200229083104 11 271 0.0 0.0 0.00 0.00 0.00 69 1024.2
20200229081541 12 271 0.0 0.0 0.00 0.00 0.00 69 1024.5
20200229080056 12 271 0.0 0.0 0.00 0.00 0.00 69 1024.5
20200229074610 12 271 0.0 0.0 0.00 0.00 0.00 68 1024.5
20200229073053 12 271 0.0 1.0 0.00 0.00 0.00 68 1024.3
20200229071613 12 271 0.0 0.0 0.00 0.00 0.00 68 1024.3
20200229070045 13 271 0.0 0.0 0.00 0.00 0.00 67 1024.2
20200229064524 13 271 0.0 0.0 0.00 0.00 0.00 66 1024.1
20200229063037 14 271 0.0 0.0 0.00 0.00 0.00 65 1024.0
20200229061526 14 271 0.0 0.0 0.00 0.00 0.00 64 1024.0
20200229060038 15 271 0.0 0.0 0.00 0.00 0.00 63 1023.8
20200229054527 14 271 0.0 0.0 0.00 0.00 0.00 64 1023.7
20200229053101 14 271 0.0 0.0 0.00 0.00 0.00 64 1023.7
20200229051514 15 271 0.0 0.0 0.00 0.00 0.00 64 1023.7
20200229050025 15 271 0.0 0.0 0.00 0.00 0.00 63 1023.7
20200229044537 15 271 0.0 0.0 0.00 0.00 0.00 64 1023.6
20200229043008 15 271 0.0 0.0 0.00 0.00 0.00 64 1023.7
20200229041514 15 271 0.0 0.0 0.00 0.00 0.00 65 1023.6
20200229040022 15 271 0.0 0.0 0.00 0.00 0.00 65 1023.7
20200229034506 16 271 0.0 0.0 0.00 0.00 0.00 64 1023.6
20200229033019 16 271 0.0 0.0 0.00 0.00 0.00 64 1023.7
20200229031505 16 271 0.0 0.0 0.00 0.00 0.00 63 1023.5
20200229030004 17 271 0.0 0.0 0.00 0.00 0.00 62 1023.5
20200229024504 18 271 0.0 0.0 0.00 0.00 0.00 59 1023.5
20200229023003 18 271 0.0 1.0 0.00 0.00 0.00 55 1023.4
20200229021510 18 271 0.0 0.0 0.00 0.00 0.00 55 1023.3
20200229020216 19 271 0.0 0.0 0.00 0.00 0.00 53 1023.2
20200229014615 20 271 0.0 2.0 0.00 0.00 0.00 51 1023.1
20200229013137 20 271 0.0 0.0 0.00 0.00 0.00 51 1023.0
20200229011651 20 271 0.0 2.0 0.00 0.00 0.00 50 1022.9
20200229010109 21 271 0.0 1.0 0.00 0.00 0.00 49 1022.8
20200229004645 21 272 0.0 1.0 0.00 0.00 0.00 48 1022.7
20200229003128 22 271 0.0 2.0 0.00 0.00 0.00 47 1022.7
20200229001612 22 281 0.0 2.0 0.00 0.00 0.00 45 1022.4
20200229000121 22 283 0.0 0.0 0.00 0.00 0.00 45 1022.0
20200228233115 23 279 0.0 1.0 0.00 0.00 0.00 47 1021.7
20200228231704 24 288 0.0 5.0 0.00 0.00 0.00 46 1021.6
20200228230105 25 269 0.0 3.0 0.00 0.00 0.00 44 1021.3
20200228224744 26 259 0.0 5.0 0.00 0.00 0.00 44 1021.1
20200228223154 26 341 0.0 4.0 0.00 0.00 0.00 46 1021.0
20200228221640 27 310 0.0 2.0 0.00 0.00 0.00 44 1020.8
20200228220109 27 315 1.0 7.0 0.00 0.00 0.00 47 1020.5
20200228214542 27 268 0.0 6.0 0.00 0.00 0.00 46 1020.4
20200228213035 27 283 2.0 7.0 0.00 0.00 0.00 45 1020.2
20200228211615 27 284 2.0 7.0 0.00 0.00 0.00 45 1020.0
20200228210122 26 291 2.0 8.0 0.00 0.00 0.00 44 1020.1
20200228204552 26 292 0.0 7.0 0.00 0.00 0.00 48 1020.1
20200228203150 26 338 0.0 4.0 0.00 0.00 0.00 47 1020.0
20200228201529 26 278 3.0 12.0 0.00 0.00 0.00 48 1020.0
20200228200103 26 284 0.0 9.0 0.00 0.00 0.00 50 1020.0
20200228194531 26 326 0.0 6.0 0.00 0.00 0.00 50 1019.9
20200228193024 26 355 1.0 7.0 0.00 0.00 0.00 52 1019.8
20200228191540 26 276 0.0 4.0 0.00 0.00 0.00 52 1019.9
20200228190041 26 302 1.0 6.0 0.00 0.00 0.00 54 1019.9
20200228184610 25 291 3.0 8.0 0.00 0.00 0.00 54 1019.9
20200228183027 25 260 0.0 7.0 0.00 0.00 0.00 56 1019.9
20200228181527 24 263 0.0 7.0 0.00 0.00 0.00 57 1020.0
20200228180021 24 273 0.0 7.0 0.00 0.00 0.00 58 1020.1
20200228174526 24 276 2.0 8.0 0.00 0.00 0.00 57 1020.0
20200228173020 23 279 1.0 7.0 0.00 0.00 0.00 59 1020.1
20200228171519 23 292 2.0 8.0 0.00 0.00 0.00 61 1020.1
20200228170014 23 265 2.0 9.0 0.00 0.00 0.00 63 1020.2
20200228164513 22 279 1.0 8.0 0.00 0.00 0.00 65 1020.2
20200228163006 22 275 2.0 8.0 0.00 0.00 0.00 67 1020.1
20200228161734 22 268 0.0 7.0 0.00 0.00 0.00 70 1020.2
20200228160259 20 273 4.0 8.0 0.00 0.00 0.00 72 1020.3
20200228154801 20 273 3.0 7.0 0.00 0.00 0.00 73 1020.1
20200228153205 20 260 0.0 3.0 0.00 0.00 0.00 74 1020.1
20200228151629 19 273 4.0 9.0 0.00 0.00 0.00 75 1020.0
20200228150156 19 272 0.0 3.0 0.00 0.00 0.00 79 1020.0
20200228144614 19 272 0.0 3.0 0.00 0.00 0.00 80 1019.9
20200228143059 18 273 0.0 3.0 0.00 0.00 0.00 82 1019.9
20200228141608 18 275 0.0 3.0 0.00 0.00 0.00 84 1019.7
20200228140100 17 270 0.0 2.0 0.00 0.00 0.00 86 1019.7